createdAt,value
2022-08-27T00:01:27.795Z,21.91
2022-08-27T00:03:56.457Z,21.89
2022-08-27T00:06:25.811Z,21.87
2022-08-27T00:08:54.944Z,21.87
2022-08-27T00:11:27.260Z,21.87
2022-08-27T00:13:56.849Z,21.85
2022-08-27T00:16:24.882Z,21.80
2022-08-27T00:18:55.149Z,21.79
2022-08-27T00:21:23.437Z,21.75
2022-08-27T00:23:51.309Z,21.70
2022-08-27T00:26:19.985Z,21.66
2022-08-27T00:28:48.258Z,21.62
2022-08-27T00:31:16.192Z,21.60
2022-08-27T00:33:45.518Z,21.57
2022-08-27T00:36:15.681Z,21.55
2022-08-27T00:38:43.655Z,21.52
2022-08-27T00:41:12.725Z,21.50
2022-08-27T00:43:57.816Z,21.46
2022-08-27T00:46:32.519Z,21.43
2022-08-27T00:49:09.916Z,21.40
2022-08-27T00:51:38.741Z,21.37
2022-08-27T00:54:09.574Z,21.35
2022-08-27T00:56:45.496Z,21.33
2022-08-27T00:59:23.165Z,21.30
2022-08-27T01:02:11.013Z,21.28
2022-08-27T01:04:41.530Z,21.26
2022-08-27T01:07:10.430Z,21.24
2022-08-27T01:09:38.967Z,21.22
2022-08-27T01:12:07.450Z,21.21
2022-08-27T01:14:36.010Z,21.20
2022-08-27T01:17:05.334Z,21.17
2022-08-27T01:19:56.312Z,21.14
2022-08-27T01:22:41.443Z,21.11
2022-08-27T01:25:12.779Z,21.09
2022-08-27T01:27:41.933Z,21.06
2022-08-27T01:30:15.091Z,21.04
2022-08-27T01:32:43.428Z,21.02
2022-08-27T01:35:15.193Z,21.01
2022-08-27T01:37:45.790Z,21.00
2022-08-27T01:40:19.317Z,20.94
2022-08-27T01:42:52.155Z,20.88
2022-08-27T01:45:25.983Z,20.82
2022-08-27T01:47:54.277Z,20.77
2022-08-27T01:50:26.246Z,20.75
2022-08-27T01:52:55.127Z,20.71
2022-08-27T01:55:26.723Z,20.70
2022-08-27T01:57:55.435Z,20.74
2022-08-27T02:00:37.009Z,20.79
2022-08-27T02:03:07.363Z,20.82
2022-08-27T02:05:39.320Z,20.85
2022-08-27T02:08:16.059Z,20.86
2022-08-27T02:10:45.916Z,20.86
2022-08-27T02:13:14.906Z,20.88
2022-08-27T02:15:44.547Z,20.88
2022-08-27T02:18:13.971Z,20.89
2022-08-27T02:20:45.759Z,20.89
2022-08-27T02:23:15.299Z,20.91
2022-08-27T02:25:43.320Z,20.92
2022-08-27T02:28:11.472Z,20.92
2022-08-27T02:30:41.650Z,20.92
2022-08-27T02:33:09.602Z,20.91
2022-08-27T02:35:43.915Z,20.91
2022-08-27T02:38:13.118Z,20.89
2022-08-27T02:40:41.335Z,20.87
2022-08-27T02:43:09.548Z,20.86
2022-08-27T02:45:40.025Z,20.85
2022-08-27T02:48:08.070Z,20.82
2022-08-27T02:50:37.142Z,20.81
2022-08-27T02:53:06.584Z,20.78
2022-08-27T02:55:34.465Z,20.74
2022-08-27T02:58:05.471Z,20.72
2022-08-27T03:00:34.708Z,20.71
2022-08-27T03:03:03.059Z,20.69
2022-08-27T03:05:30.878Z,20.66
2022-08-27T03:08:00.096Z,20.62
2022-08-27T03:10:27.911Z,20.57
2022-08-27T03:12:56.479Z,20.53
2022-08-27T03:15:24.728Z,20.51
2022-08-27T03:18:11.551Z,20.50
2022-08-27T03:20:42.836Z,20.46
2022-08-27T03:23:11.395Z,20.46
2022-08-27T03:25:39.368Z,20.47
2022-08-27T03:28:13.468Z,20.46
2022-08-27T03:30:54.758Z,20.46
2022-08-27T03:33:22.781Z,20.47
2022-08-27T03:35:51.986Z,20.47
2022-08-27T03:38:20.993Z,20.48
2022-08-27T03:40:49.126Z,20.48
2022-08-27T03:43:18.806Z,20.49
2022-08-27T03:46:00.574Z,20.48
2022-08-27T03:48:32.767Z,20.48
2022-08-27T03:51:10.587Z,20.48
2022-08-27T03:53:40.756Z,20.46
2022-08-27T03:56:08.875Z,20.43
2022-08-27T03:58:38.092Z,20.41
2022-08-27T04:01:08.208Z,20.33
2022-08-27T04:03:36.716Z,20.26
2022-08-27T04:06:05.394Z,20.20
2022-08-27T04:08:33.360Z,20.15
2022-08-27T04:11:06.337Z,20.10
2022-08-27T04:13:34.376Z,20.07
2022-08-27T04:16:02.335Z,20.04
2022-08-27T04:18:30.178Z,20.01
2022-08-27T04:20:58.311Z,19.97
2022-08-27T04:23:26.215Z,19.94
2022-08-27T04:25:56.470Z,19.93
2022-08-27T04:28:24.452Z,19.93
2022-08-27T04:30:52.277Z,19.94
2022-08-27T04:33:20.154Z,19.94
2022-08-27T04:35:48.107Z,19.95
2022-08-27T04:38:17.311Z,19.97
2022-08-27T04:41:03.536Z,19.99
2022-08-27T04:43:31.410Z,20.00
2022-08-27T04:45:59.178Z,20.01
2022-08-27T04:48:27.263Z,20.02
2022-08-27T04:50:55.627Z,20.03
2022-08-27T04:53:23.697Z,20.03
2022-08-27T04:55:54.262Z,20.04
2022-08-27T04:58:26.934Z,20.05
2022-08-27T05:01:00.070Z,20.07
2022-08-27T05:03:28.988Z,20.10
2022-08-27T05:06:03.542Z,20.11
2022-08-27T05:08:32.066Z,20.16
2022-08-27T05:11:00.711Z,20.21
2022-08-27T05:13:29.463Z,20.24
2022-08-27T05:16:04.250Z,20.26
2022-08-27T05:18:36.388Z,20.30
2022-08-27T05:21:12.556Z,20.34
2022-08-27T05:23:40.784Z,20.36
2022-08-27T05:26:09.041Z,20.38
2022-08-27T05:28:37.287Z,20.42
2022-08-27T05:31:10.115Z,20.44
2022-08-27T05:33:39.374Z,20.48
2022-08-27T05:36:14.611Z,20.51
2022-08-27T05:38:43.332Z,20.53
2022-08-27T05:41:15.094Z,20.58
2022-08-27T05:43:49.137Z,20.62
2022-08-27T05:46:21.131Z,20.66
2022-08-27T05:48:50.361Z,20.71
2022-08-27T05:51:26.430Z,20.76
2022-08-27T05:54:08.753Z,20.82
2022-08-27T05:56:41.864Z,20.87
2022-08-27T05:59:35.554Z,20.93
2022-08-27T06:02:09.705Z,21.00
2022-08-27T06:04:54.086Z,21.06
2022-08-27T06:07:43.881Z,21.14
2022-08-27T06:10:13.258Z,21.22
2022-08-27T06:12:44.702Z,21.29
2022-08-27T06:15:16.226Z,21.36
2022-08-27T06:17:44.264Z,21.43
2022-08-27T06:26:44.324Z,21.59
2022-08-27T06:29:44.620Z,21.75
2022-08-27T06:32:17.022Z,21.82
2022-08-27T06:35:06.286Z,21.90
2022-08-27T06:37:34.305Z,21.98
2022-08-27T06:40:08.902Z,22.08
2022-08-27T06:42:38.643Z,22.17
2022-08-27T06:45:11.969Z,22.28
2022-08-27T06:47:42.958Z,22.38
2022-08-27T06:50:11.164Z,22.47
2022-08-27T06:52:39.978Z,22.59
2022-08-27T06:55:09.742Z,22.71
2022-08-27T06:57:38.182Z,22.82
2022-08-27T07:00:10.208Z,22.95
2022-08-27T07:02:45.187Z,23.07
2022-08-27T07:05:13.260Z,23.21
2022-08-27T07:07:46.672Z,23.35
2022-08-27T07:10:16.793Z,23.51
2022-08-27T07:12:44.821Z,23.63
2022-08-27T07:15:12.896Z,23.73
2022-08-27T07:17:44.940Z,23.83
2022-08-27T07:20:15.393Z,23.93
2022-08-27T07:22:45.515Z,24.04
2022-08-27T07:25:21.025Z,24.14
2022-08-27T07:27:49.362Z,24.25
2022-08-27T07:30:18.174Z,24.38
2022-08-27T07:32:47.066Z,24.51
2022-08-27T07:35:14.895Z,24.64
2022-08-27T07:37:43.416Z,24.77
2022-08-27T07:40:15.421Z,24.91
2022-08-27T07:43:02.593Z,25.07
2022-08-27T07:45:30.636Z,25.27
2022-08-27T07:48:00.800Z,25.52
2022-08-27T07:50:38.361Z,25.83
2022-08-27T07:53:07.597Z,26.17
2022-08-27T07:55:39.480Z,26.54
2022-08-27T07:58:10.779Z,26.90
2022-08-27T08:00:48.090Z,27.28
2022-08-27T08:03:16.829Z,27.65
2022-08-27T08:05:58.550Z,28.06
2022-08-27T08:08:26.623Z,28.48
2022-08-27T08:10:59.638Z,28.85
2022-08-27T08:13:27.712Z,29.13
2022-08-27T08:15:57.876Z,29.33
2022-08-27T08:18:26.723Z,29.51
2022-08-27T08:21:01.367Z,29.69
2022-08-27T08:23:34.598Z,29.86
2022-08-27T08:26:03.200Z,30.01
2022-08-27T08:28:31.376Z,30.13
2022-08-27T08:30:59.836Z,30.21
2022-08-27T08:33:27.984Z,30.28
2022-08-27T08:36:02.884Z,30.38
2022-08-27T08:38:32.201Z,30.49
2022-08-27T08:41:00.124Z,30.63
2022-08-27T08:43:39.671Z,30.79
2022-08-27T08:46:45.213Z,30.97
2022-08-27T08:49:36.836Z,31.21
2022-08-27T08:52:36.787Z,31.44
2022-08-27T08:55:29.491Z,31.69
2022-08-27T08:58:23.451Z,31.89
2022-08-27T09:00:57.788Z,32.07
2022-08-27T09:03:27.331Z,32.22
2022-08-27T09:06:08.864Z,32.39
2022-08-27T09:08:42.108Z,32.54
2022-08-27T09:11:52.238Z,32.67
2022-08-27T09:14:42.287Z,32.88
2022-08-27T09:17:14.942Z,33.12
2022-08-27T09:19:43.622Z,33.34
2022-08-27T09:22:28.986Z,33.54
2022-08-27T09:25:10.539Z,33.76
2022-08-27T09:27:43.198Z,33.96
2022-08-27T09:30:20.926Z,34.15
2022-08-27T09:33:01.455Z,34.29
2022-08-27T09:35:42.883Z,34.41
2022-08-27T09:38:26.759Z,34.50
2022-08-27T09:41:00.913Z,34.60
2022-08-27T09:43:31.597Z,34.65
2022-08-27T09:46:14.759Z,34.64
2022-08-27T09:48:42.581Z,34.61
2022-08-27T09:51:21.846Z,34.66
2022-08-27T09:53:56.313Z,34.72
2022-08-27T09:56:40.890Z,34.75
2022-08-27T09:59:28.093Z,34.86
2022-08-27T10:02:04.296Z,34.96
2022-08-27T10:04:50.381Z,35.06
2022-08-27T10:07:31.913Z,35.25
2022-08-27T10:10:18.106Z,35.49
2022-08-27T10:13:10.352Z,35.71
2022-08-27T10:15:49.558Z,35.89
2022-08-27T10:18:58.383Z,35.95
2022-08-27T10:21:59.668Z,36.04
2022-08-27T10:25:22.397Z,36.06
2022-08-27T10:28:08.597Z,36.07
2022-08-27T10:31:06.353Z,36.14
2022-08-27T10:34:12.337Z,36.22
2022-08-27T10:37:07.379Z,36.34
2022-08-27T10:40:10.317Z,36.48
2022-08-27T10:42:57.606Z,36.65
2022-08-27T10:46:00.289Z,36.78
2022-08-27T10:48:35.796Z,36.90
2022-08-27T10:51:39.254Z,37.00
2022-08-27T10:54:21.783Z,37.14
2022-08-27T10:57:14.527Z,37.26
2022-08-27T11:48:26.917Z,35.82
2022-08-27T11:51:00.525Z,35.68
2022-08-27T11:54:04.753Z,35.55
2022-08-27T11:56:39.009Z,35.40
2022-08-27T11:59:22.517Z,35.27
2022-08-27T12:01:55.210Z,35.13
2022-08-27T12:04:36.708Z,34.98
2022-08-27T12:07:17.566Z,34.80
2022-08-27T12:10:11.517Z,34.63
2022-08-27T12:13:03.172Z,34.50
2022-08-27T12:16:16.487Z,34.38
2022-08-27T12:19:15.516Z,34.29
2022-08-27T12:22:05.473Z,34.22
2022-08-27T12:24:55.813Z,34.19
2022-08-27T12:27:32.265Z,34.18
2022-08-27T12:30:32.520Z,34.16
2022-08-27T12:33:12.578Z,34.13
2022-08-27T12:35:51.993Z,34.06
2022-08-27T12:38:32.502Z,34.02
2022-08-27T12:41:08.953Z,34.04
2022-08-27T12:43:43.524Z,34.06
2022-08-27T12:46:18.307Z,34.11
2022-08-27T12:48:58.139Z,34.14
2022-08-27T12:51:40.807Z,34.14
2022-08-27T12:54:55.887Z,34.13
2022-08-27T12:57:48.340Z,34.13
2022-08-27T13:00:22.885Z,34.13
2022-08-27T13:03:13.180Z,34.10
2022-08-27T13:05:49.199Z,34.07
2022-08-27T13:08:32.261Z,34.03
2022-08-27T13:11:31.352Z,34.02
2022-08-27T13:14:12.590Z,34.02
2022-08-27T13:16:50.516Z,34.02
2022-08-27T13:19:32.951Z,34.00
2022-08-27T13:22:02.199Z,34.00
2022-08-27T13:24:47.722Z,33.98
2022-08-27T13:27:16.547Z,33.94
2022-08-27T13:29:44.531Z,33.90
2022-08-27T13:32:14.391Z,33.86
2022-08-27T13:34:42.583Z,33.79
2022-08-27T13:37:57.737Z,33.70
2022-08-27T13:40:38.693Z,33.58
2022-08-27T13:43:12.814Z,33.45
2022-08-27T13:45:41.885Z,33.31
2022-08-27T13:48:11.776Z,33.18
2022-08-27T13:50:48.695Z,33.07
2022-08-27T13:53:43.366Z,32.93
2022-08-27T13:56:12.637Z,32.79
2022-08-27T13:58:40.570Z,32.66
2022-08-27T14:01:29.063Z,32.54
2022-08-27T14:04:06.492Z,32.41
2022-08-27T14:06:45.687Z,32.30
2022-08-27T14:09:29.392Z,32.19
2022-08-27T14:12:07.019Z,32.08
2022-08-27T14:14:42.479Z,31.99
2022-08-27T14:17:35.264Z,31.90
2022-08-27T14:20:06.713Z,31.81
2022-08-27T14:22:37.476Z,31.73
2022-08-27T14:25:06.705Z,31.66
2022-08-27T14:27:37.005Z,31.58
2022-08-27T14:30:08.480Z,31.51
2022-08-27T14:32:37.111Z,31.42
2022-08-27T14:35:05.718Z,31.36
2022-08-27T14:37:33.554Z,31.29
2022-08-27T14:40:01.398Z,31.23
2022-08-27T14:42:29.339Z,31.17
2022-08-27T14:44:57.759Z,31.11
2022-08-27T14:47:32.165Z,31.06
2022-08-27T14:50:02.211Z,31.01
2022-08-27T14:52:30.007Z,30.96
2022-08-27T14:54:57.898Z,30.90
2022-08-27T14:57:25.808Z,30.86
2022-08-27T14:59:53.624Z,30.81
2022-08-27T15:02:23.173Z,30.77
2022-08-27T15:04:51.208Z,30.72
2022-08-27T15:07:20.021Z,30.68
2022-08-27T15:09:50.906Z,30.64
2022-08-27T15:12:26.128Z,30.61
2022-08-27T15:14:54.956Z,30.58
2022-08-27T15:17:35.127Z,30.55
2022-08-27T15:20:20.466Z,30.53
2022-08-27T15:22:51.259Z,30.51
2022-08-27T15:25:20.076Z,30.48
2022-08-27T15:27:49.051Z,30.45
2022-08-27T15:30:18.928Z,30.42
2022-08-27T15:32:48.601Z,30.39
2022-08-27T15:35:23.144Z,30.36
2022-08-27T15:37:51.037Z,30.34
2022-08-27T15:40:19.729Z,30.31
2022-08-27T15:42:56.457Z,30.28
2022-08-27T15:45:25.543Z,30.24
2022-08-27T15:47:53.693Z,30.20
2022-08-27T15:50:21.601Z,30.16
2022-08-27T15:52:51.898Z,30.12
2022-08-27T15:55:23.878Z,30.08
2022-08-27T15:57:52.263Z,30.03
2022-08-27T16:00:22.002Z,29.98
2022-08-27T16:02:51.264Z,29.93
2022-08-27T16:05:20.375Z,29.89
2022-08-27T16:07:49.135Z,29.84
2022-08-27T16:10:17.433Z,29.80
2022-08-27T16:12:46.456Z,29.75
2022-08-27T16:15:15.041Z,29.70
2022-08-27T16:17:43.375Z,29.66
2022-08-27T16:20:15.229Z,29.62
2022-08-27T16:22:44.285Z,29.58
2022-08-27T16:25:17.832Z,29.55
2022-08-27T16:27:47.607Z,29.51
2022-08-27T16:30:15.537Z,29.48
2022-08-27T16:32:49.114Z,29.46
2022-08-27T16:35:17.334Z,29.43
2022-08-27T16:37:46.358Z,29.41
2022-08-27T16:40:15.725Z,29.38
2022-08-27T16:42:48.183Z,29.35
2022-08-27T16:45:18.635Z,29.33
2022-08-27T16:48:05.099Z,29.30
2022-08-27T16:50:36.125Z,29.27
2022-08-27T16:53:14.080Z,29.24
2022-08-27T16:55:44.529Z,29.21
2022-08-27T16:58:26.908Z,29.17
2022-08-27T17:01:00.757Z,29.13
2022-08-27T17:03:30.773Z,29.10
2022-08-27T17:05:59.269Z,29.06
2022-08-27T17:08:27.755Z,29.02
2022-08-27T17:10:59.982Z,28.98
2022-08-27T17:13:31.966Z,28.93
2022-08-27T17:16:30.358Z,28.89
2022-08-27T17:19:19.576Z,28.83
2022-08-27T17:21:50.929Z,28.77
2022-08-27T17:24:27.852Z,28.73
2022-08-27T17:26:55.924Z,28.67
2022-08-27T17:29:24.416Z,28.61
2022-08-27T17:31:52.460Z,28.54
2022-08-27T17:34:23.969Z,28.48
2022-08-27T17:36:54.142Z,28.41
2022-08-27T17:39:22.273Z,28.33
2022-08-27T17:41:51.991Z,28.26
2022-08-27T17:44:31.906Z,28.18
2022-08-27T17:47:10.605Z,28.10
2022-08-27T17:49:41.366Z,28.01
2022-08-27T17:52:14.167Z,27.93
2022-08-27T17:54:52.579Z,27.84
2022-08-27T17:57:40.982Z,27.75
2022-08-27T18:00:13.294Z,27.65
2022-08-27T18:02:48.507Z,27.56
2022-08-27T18:05:19.138Z,27.47
2022-08-27T18:07:47.543Z,27.38
2022-08-27T18:10:19.601Z,27.29
2022-08-27T18:12:47.336Z,27.21
2022-08-27T18:15:25.869Z,27.13
2022-08-27T18:17:55.102Z,27.05
2022-08-27T18:20:27.121Z,26.96
2022-08-27T18:22:55.544Z,26.87
2022-08-27T18:25:30.613Z,26.79
2022-08-27T18:28:06.490Z,26.70
2022-08-27T18:30:34.975Z,26.62
2022-08-27T18:33:02.886Z,26.55
2022-08-27T18:35:34.931Z,26.48
2022-08-27T18:38:06.411Z,26.42
2022-08-27T18:40:45.843Z,26.35
2022-08-27T18:43:15.040Z,26.28
2022-08-27T18:45:43.349Z,26.23
2022-08-27T18:48:19.849Z,26.19
2022-08-27T18:50:57.268Z,26.19
2022-08-27T18:53:28.884Z,26.18
2022-08-27T18:55:57.063Z,26.16
2022-08-27T18:58:25.249Z,26.15
2022-08-27T19:01:00.084Z,26.13
2022-08-27T19:03:35.817Z,26.10
2022-08-27T19:06:08.769Z,26.08
2022-08-27T19:08:39.064Z,26.06
2022-08-27T19:11:07.277Z,26.04
2022-08-27T19:13:35.422Z,26.02
2022-08-27T19:16:07.358Z,25.99
2022-08-27T19:18:37.072Z,25.98
2022-08-27T19:21:07.445Z,25.94
2022-08-27T19:23:36.391Z,25.92
2022-08-27T19:26:05.971Z,25.89
2022-08-27T19:28:41.880Z,25.87
2022-08-27T19:31:09.749Z,25.84
2022-08-27T19:33:38.686Z,25.81
2022-08-27T19:36:11.396Z,25.78
2022-08-27T19:38:42.361Z,25.76
2022-08-27T19:41:10.368Z,25.73
2022-08-27T19:43:38.526Z,25.70
2022-08-27T19:46:10.120Z,25.67
2022-08-27T19:48:38.079Z,25.64
2022-08-27T19:51:06.223Z,25.66
2022-08-27T19:53:35.554Z,25.64
2022-08-27T19:56:05.558Z,25.61
2022-08-27T19:58:33.651Z,25.58
2022-08-27T20:01:01.617Z,25.55
2022-08-27T20:03:32.720Z,25.54
2022-08-27T20:06:00.767Z,25.51
2022-08-27T20:08:30.448Z,25.48
2022-08-27T20:10:58.267Z,25.45
2022-08-27T20:13:29.923Z,25.43
2022-08-27T20:16:02.634Z,25.40
2022-08-27T20:18:30.742Z,25.38
2022-08-27T20:20:58.749Z,25.35
2022-08-27T20:23:34.266Z,25.33
2022-08-27T20:26:05.701Z,25.31
2022-08-27T20:28:39.378Z,25.28
2022-08-27T20:31:08.592Z,25.26
2022-08-27T20:33:36.770Z,25.23
2022-08-27T20:36:12.887Z,25.20
2022-08-27T20:38:41.008Z,25.16
2022-08-27T20:41:09.023Z,25.13
2022-08-27T20:43:37.075Z,25.11
2022-08-27T20:46:05.362Z,25.08
2022-08-27T20:48:33.584Z,25.05
2022-08-27T20:51:01.887Z,25.03
2022-08-27T20:53:41.889Z,25.00
2022-08-27T20:56:09.924Z,24.97
2022-08-27T20:58:56.608Z,24.93
2022-08-27T21:01:24.963Z,24.89
2022-08-27T21:03:54.323Z,24.85
2022-08-27T21:06:26.415Z,24.82
2022-08-27T21:08:54.870Z,24.78
2022-08-27T21:11:23.198Z,24.75
2022-08-27T21:13:56.082Z,24.71
2022-08-27T21:16:25.663Z,24.67
2022-08-27T21:18:54.073Z,24.64
2022-08-27T21:21:23.055Z,24.61
2022-08-27T21:23:51.231Z,24.57
2022-08-27T21:26:20.487Z,24.55
2022-08-27T21:28:48.371Z,24.51
2022-08-27T21:31:25.292Z,24.47
2022-08-27T21:33:54.501Z,24.41
2022-08-27T21:36:23.476Z,24.37
2022-08-27T21:38:51.445Z,24.31
2022-08-27T21:41:23.056Z,24.26
2022-08-27T21:43:51.802Z,24.21
2022-08-27T21:46:20.573Z,24.16
2022-08-27T21:48:58.768Z,24.11
2022-08-27T21:51:27.214Z,24.06
2022-08-27T21:53:55.238Z,24.01
2022-08-27T21:56:24.082Z,23.96
2022-08-27T21:58:52.273Z,23.94
2022-08-27T22:01:20.467Z,23.91
2022-08-27T22:03:51.811Z,23.88
2022-08-27T22:06:19.956Z,23.85
2022-08-27T22:08:49.008Z,23.83
2022-08-27T22:11:23.345Z,23.83
2022-08-27T22:13:53.484Z,23.80
2022-08-27T22:16:21.331Z,23.77
2022-08-27T22:18:54.329Z,23.75
2022-08-27T22:21:25.180Z,23.73
2022-08-27T22:23:53.152Z,23.71
2022-08-27T22:26:21.738Z,23.69
2022-08-27T22:28:50.065Z,23.67
2022-08-27T22:31:18.412Z,23.66
2022-08-27T22:33:47.075Z,23.63
2022-08-27T22:36:19.903Z,23.59
2022-08-27T22:38:47.982Z,23.56
2022-08-27T22:41:17.835Z,23.53
2022-08-27T22:43:47.283Z,23.50
2022-08-27T22:46:15.494Z,23.46
2022-08-27T22:48:45.852Z,23.42
2022-08-27T22:51:13.952Z,23.38
2022-08-27T22:53:41.945Z,23.34
2022-08-27T22:56:10.800Z,23.30
2022-08-27T22:58:40.938Z,23.25
2022-08-27T23:01:21.057Z,23.20
2022-08-27T23:03:49.178Z,23.16
2022-08-27T23:06:17.606Z,23.11
2022-08-27T23:08:45.977Z,23.06
2022-08-27T23:11:16.096Z,23.02
2022-08-27T23:13:45.269Z,22.96
2022-08-27T23:16:15.826Z,22.92
2022-08-27T23:18:46.019Z,22.88
2022-08-27T23:21:14.368Z,22.84
2022-08-27T23:23:42.523Z,22.81
2022-08-27T23:26:29.112Z,22.77
2022-08-27T23:28:56.956Z,22.75
2022-08-27T23:31:24.879Z,22.73
2022-08-27T23:33:54.024Z,22.70
2022-08-27T23:36:22.293Z,22.69
2022-08-27T23:38:50.357Z,22.68
2022-08-27T23:41:18.217Z,22.67
2022-08-27T23:43:46.663Z,22.66
2022-08-27T23:46:14.488Z,22.65
2022-08-27T23:48:42.501Z,22.64
2022-08-27T23:51:10.470Z,22.64
2022-08-27T23:53:38.390Z,22.65
2022-08-27T23:56:06.682Z,22.63
2022-08-27T23:58:34.807Z,22.59
